San Jose, Guatemala
Current Conditions -  °F | °C
As of 2:00 PM on Wednesday 26 Nov 2014 (Local Time) from MGSJ Reporting Station
Few Clouds Few Clouds  
Wind Chill: 88°   Ceiling: Unl
Heat Index: 98°   Visibility: 6mi
Dew Point: 75°   Wind: 9mph
Humidity: 66%   Direction: 200°SSW
Pressure: 29.83"   Gusts: NA
Location:  13.92°N, 90.82°W
Report Text: MGSJ 262000Z 20008KT CAVOK 31/24 Q1010 A2983 FEW200
Loading
Personal Weather Stations






























Interactive Weather Map New forecast layout! Learn more

10-Day Weather Forecast

Advertisements
Track Severe Weather on mobile